Innellan, United Kingdom
Current Conditions -  °F | °C
As of 8:20 PM on Wednesday 28 Jan 2015 (Local Time) from EGPF Reporting Station
Scattered Clouds Scattered Clouds  
Wind Chill: 25°   Ceiling: Unl
Heat Index: 34°   Visibility: 6mi
Dew Point: 30°   Wind: 13mph
Humidity: 87%   Direction: 270°W
Pressure: 29.12"   Gusts: NA
Location:  55.89°N, 4.96°W
Report Text: EGPF 282020Z 27011KT 9999 FEW020 SCT042 01/M01 Q0986
Loading
Personal Weather Stations






























Interactive Weather Map New forecast layout! Learn more

10-Day Weather Forecast

Advertisements
Track Severe Weather on mobile